createdAt,value
2022-12-07T00:00:12.730Z,5.35
2022-12-07T00:00:44.844Z,5.32
2022-12-07T00:01:17.010Z,5.34
2022-12-07T00:01:50.002Z,5.34
2022-12-07T00:02:22.118Z,5.34
2022-12-07T00:02:54.247Z,5.34
2022-12-07T00:03:45.902Z,5.35
2022-12-07T00:04:17.953Z,5.34
2022-12-07T00:04:50.104Z,5.34
2022-12-07T00:05:22.435Z,5.31
2022-12-07T00:05:54.553Z,5.34
2022-12-07T00:06:26.678Z,5.34
2022-12-07T00:06:58.824Z,5.31
2022-12-07T00:07:30.963Z,5.34
2022-12-07T00:08:03.268Z,5.34
2022-12-07T00:08:35.383Z,5.35
2022-12-07T00:09:07.591Z,5.32
2022-12-07T00:09:39.811Z,5.35
2022-12-07T00:10:31.311Z,5.35
2022-12-07T00:11:03.498Z,5.35
2022-12-07T00:11:35.646Z,5.34
2022-12-07T00:12:07.766Z,5.34
2022-12-07T00:12:39.885Z,5.35
2022-12-07T00:13:11.987Z,5.34
2022-12-07T00:13:44.110Z,5.34
2022-12-07T00:14:16.422Z,5.35
2022-12-07T00:14:48.679Z,5.35
2022-12-07T00:15:20.793Z,5.34
2022-12-07T00:15:52.941Z,5.34
2022-12-07T00:16:25.062Z,5.35
2022-12-07T00:16:57.329Z,5.34
2022-12-07T00:17:29.387Z,5.35
2022-12-07T00:18:01.520Z,5.35
2022-12-07T00:18:33.677Z,5.32
2022-12-07T00:19:05.925Z,5.34
2022-12-07T00:19:37.922Z,5.35
2022-12-07T00:20:10.069Z,5.35
2022-12-07T00:20:42.181Z,5.35
2022-12-07T00:21:14.382Z,5.35
2022-12-07T00:21:46.529Z,5.35
2022-12-07T00:22:18.620Z,5.35
2022-12-07T00:22:50.754Z,5.37
2022-12-07T00:23:22.923Z,5.37
2022-12-07T00:23:55.048Z,5.38
2022-12-07T00:24:27.205Z,5.34
2022-12-07T00:24:59.319Z,5.35
2022-12-07T00:25:31.438Z,5.34
2022-12-07T00:26:03.590Z,5.34
2022-12-07T00:26:35.714Z,5.34
2022-12-07T00:27:07.900Z,5.35
2022-12-07T00:27:42.605Z,5.34
2022-12-07T00:28:14.799Z,5.34
2022-12-07T00:28:46.946Z,5.34
2022-12-07T00:29:19.038Z,5.32
2022-12-07T00:29:51.220Z,5.32
2022-12-07T00:30:23.459Z,5.32
2022-12-07T00:30:55.626Z,5.31
2022-12-07T00:31:27.788Z,5.32
2022-12-07T00:31:59.882Z,5.30
2022-12-07T00:32:31.980Z,5.30
2022-12-07T00:33:04.093Z,5.31
2022-12-07T00:33:36.212Z,5.30
2022-12-07T00:34:08.343Z,5.28
2022-12-07T00:34:40.484Z,5.28
2022-12-07T00:35:12.611Z,5.27
2022-12-07T00:35:44.748Z,5.27
2022-12-07T00:36:17.683Z,5.27
2022-12-07T00:36:48.986Z,5.28
2022-12-07T00:37:21.282Z,5.27
2022-12-07T00:37:53.480Z,5.25
2022-12-07T00:38:25.615Z,5.27
2022-12-07T00:38:57.747Z,5.27
2022-12-07T00:39:29.849Z,5.23
2022-12-07T00:40:02.221Z,5.25
2022-12-07T00:40:34.126Z,5.23
2022-12-07T00:41:06.237Z,5.25
2022-12-07T00:41:38.358Z,5.22
2022-12-07T00:42:10.465Z,5.25
2022-12-07T00:42:42.678Z,5.22
2022-12-07T00:43:14.795Z,5.22
2022-12-07T00:43:46.900Z,5.22
2022-12-07T00:44:19.023Z,5.22
2022-12-07T00:44:51.147Z,5.20
2022-12-07T00:45:23.263Z,5.20
2022-12-07T00:45:55.434Z,5.19
2022-12-07T00:46:27.547Z,5.20
2022-12-07T00:46:59.619Z,5.19
2022-12-07T00:47:31.860Z,5.20
2022-12-07T00:48:03.966Z,5.17
2022-12-07T00:48:36.087Z,5.17
2022-12-07T00:49:08.223Z,5.19
2022-12-07T00:49:40.361Z,5.19
2022-12-07T00:50:12.559Z,5.16
2022-12-07T00:50:44.672Z,5.17
2022-12-07T00:51:16.777Z,5.14
2022-12-07T00:51:48.900Z,5.13
2022-12-07T00:52:21.060Z,5.13
2022-12-07T00:52:53.221Z,5.16
2022-12-07T00:53:25.458Z,5.14
2022-12-07T00:53:57.580Z,5.14
2022-12-07T00:54:29.838Z,5.14
2022-12-07T00:55:01.993Z,5.13
2022-12-07T00:55:34.107Z,5.13
2022-12-07T00:56:06.213Z,5.12
2022-12-07T00:56:38.419Z,5.13
2022-12-07T00:57:10.539Z,5.14
2022-12-07T00:57:42.736Z,5.13
2022-12-07T00:58:14.873Z,5.12
2022-12-07T00:58:47.010Z,5.10
2022-12-07T00:59:19.143Z,5.09
2022-12-07T00:59:51.285Z,5.10
2022-12-07T01:00:23.457Z,5.10
2022-12-07T01:00:55.664Z,5.09
2022-12-07T01:01:27.834Z,5.09
2022-12-07T01:01:59.937Z,5.12
2022-12-07T01:02:32.049Z,5.10
2022-12-07T01:03:04.196Z,5.09
2022-12-07T01:03:36.409Z,5.10
2022-12-07T01:04:08.391Z,5.09
2022-12-07T01:04:40.549Z,5.10
2022-12-07T01:05:12.704Z,5.10
2022-12-07T01:05:44.814Z,5.10
2022-12-07T01:06:16.934Z,5.09
2022-12-07T01:06:49.239Z,5.12
2022-12-07T01:07:21.372Z,5.10
2022-12-07T01:07:53.599Z,5.10
2022-12-07T01:08:25.736Z,5.09
2022-12-07T01:08:57.901Z,5.10
2022-12-07T01:09:30.014Z,5.07
2022-12-07T01:10:02.346Z,5.09
2022-12-07T01:10:34.304Z,5.05
2022-12-07T01:11:06.424Z,5.07
2022-12-07T01:11:38.549Z,5.07
2022-12-07T01:12:10.822Z,5.05
2022-12-07T01:12:43.038Z,5.05
2022-12-07T01:13:15.150Z,5.07
2022-12-07T01:13:47.261Z,5.02
2022-12-07T01:14:19.397Z,5.07
2022-12-07T01:14:51.514Z,5.05
2022-12-07T01:15:23.737Z,5.02
2022-12-07T01:15:56.127Z,5.04
2022-12-07T01:16:28.287Z,5.04
2022-12-07T01:17:00.439Z,5.04
2022-12-07T01:17:32.484Z,5.04
2022-12-07T01:18:04.608Z,5.04
2022-12-07T01:18:36.738Z,5.02
2022-12-07T01:19:08.908Z,5.02
2022-12-07T01:19:41.042Z,5.04
2022-12-07T01:20:13.167Z,5.01
2022-12-07T01:20:45.298Z,5.01
2022-12-07T01:21:17.433Z,5.01
2022-12-07T01:21:49.568Z,4.99
2022-12-07T01:22:21.678Z,5.01
2022-12-07T01:22:53.793Z,5.01
2022-12-07T01:23:25.903Z,5.02
2022-12-07T01:23:58.054Z,5.01
2022-12-07T01:24:30.154Z,5.02
2022-12-07T01:25:02.290Z,4.98
2022-12-07T01:25:34.420Z,4.98
2022-12-07T01:26:06.525Z,4.99
2022-12-07T01:26:38.670Z,4.98
2022-12-07T01:27:10.794Z,4.98
2022-12-07T01:27:42.905Z,4.98
2022-12-07T01:28:15.060Z,4.95
2022-12-07T01:28:47.177Z,4.96
2022-12-07T01:29:19.304Z,4.95
2022-12-07T01:29:51.450Z,4.92
2022-12-07T01:30:23.827Z,4.92
2022-12-07T01:30:55.841Z,4.91
2022-12-07T01:31:27.903Z,4.91
2022-12-07T01:32:00.029Z,4.89
2022-12-07T01:32:32.137Z,4.89
2022-12-07T01:33:04.253Z,4.89
2022-12-07T01:33:36.411Z,4.89
2022-12-07T01:34:08.521Z,4.89
2022-12-07T01:34:40.715Z,4.92
2022-12-07T01:35:12.879Z,4.91
2022-12-07T01:35:45.045Z,4.89
2022-12-07T01:36:17.147Z,4.88
2022-12-07T01:36:49.273Z,4.89
2022-12-07T01:37:21.377Z,4.84
2022-12-07T01:37:53.498Z,4.84
2022-12-07T01:38:25.620Z,4.84
2022-12-07T01:38:57.790Z,4.84
2022-12-07T01:39:29.875Z,4.84
2022-12-07T01:40:02.127Z,4.80
2022-12-07T01:40:34.133Z,4.80
2022-12-07T01:41:06.247Z,4.83
2022-12-07T01:41:38.357Z,4.83
2022-12-07T01:42:10.465Z,4.80
2022-12-07T01:42:42.724Z,4.79
2022-12-07T01:43:14.853Z,4.79
2022-12-07T01:43:46.985Z,4.79
2022-12-07T01:44:19.088Z,4.79
2022-12-07T01:44:51.221Z,4.79
2022-12-07T01:45:23.338Z,4.77
2022-12-07T01:45:55.533Z,4.77
2022-12-07T01:46:27.664Z,4.76
2022-12-07T01:46:59.744Z,4.76
2022-12-07T01:47:31.933Z,4.77
2022-12-07T01:48:04.127Z,4.75
2022-12-07T01:48:36.285Z,4.76
2022-12-07T01:49:08.400Z,4.76
2022-12-07T01:49:40.576Z,4.76
2022-12-07T01:50:12.706Z,4.73
2022-12-07T01:50:44.858Z,4.72
2022-12-07T01:51:16.970Z,4.75
2022-12-07T01:51:49.133Z,4.73
2022-12-07T01:52:21.242Z,4.72
2022-12-07T01:52:53.466Z,4.72
2022-12-07T01:53:25.577Z,4.70
2022-12-07T01:53:57.707Z,4.70
2022-12-07T01:54:29.830Z,4.70
2022-12-07T01:55:02.037Z,4.72
2022-12-07T01:55:34.296Z,4.70
2022-12-07T01:56:06.432Z,4.69
2022-12-07T01:56:38.552Z,4.69
2022-12-07T01:57:10.680Z,4.70
2022-12-07T01:57:42.799Z,4.69
2022-12-07T01:58:14.944Z,4.69
2022-12-07T01:58:47.086Z,4.65
2022-12-07T01:59:19.194Z,4.67
2022-12-07T01:59:51.382Z,4.65
2022-12-07T02:00:23.528Z,4.65
2022-12-07T02:00:55.715Z,4.64
2022-12-07T02:01:27.912Z,4.65
2022-12-07T02:02:00.047Z,4.64
2022-12-07T02:02:32.163Z,4.64
2022-12-07T02:03:04.410Z,4.62
2022-12-07T02:03:36.497Z,4.64
2022-12-07T02:04:08.638Z,4.61
2022-12-07T02:04:40.769Z,4.61
2022-12-07T02:05:12.968Z,4.61
2022-12-07T02:05:45.129Z,4.58
2022-12-07T02:06:17.227Z,4.58
2022-12-07T02:06:49.390Z,4.59
2022-12-07T02:07:21.531Z,4.57
2022-12-07T02:07:53.738Z,4.55
2022-12-07T02:08:25.884Z,4.55
2022-12-07T02:08:57.938Z,4.54
2022-12-07T02:09:30.041Z,4.52
2022-12-07T02:10:02.536Z,4.52
2022-12-07T02:10:34.328Z,4.51
2022-12-07T02:11:06.448Z,4.50
2022-12-07T02:11:38.542Z,4.51
2022-12-07T02:12:10.668Z,4.50
2022-12-07T02:12:42.886Z,4.51
2022-12-07T02:13:14.988Z,4.47
2022-12-07T02:13:47.127Z,4.44
2022-12-07T02:14:19.264Z,4.46
2022-12-07T02:14:51.408Z,4.46
2022-12-07T02:15:23.507Z,4.46
2022-12-07T02:15:55.700Z,4.44
2022-12-07T02:16:27.839Z,4.42
2022-12-07T02:16:59.874Z,4.44
2022-12-07T02:17:32.073Z,4.43
2022-12-07T02:18:04.203Z,4.42
2022-12-07T02:18:36.315Z,4.44
2022-12-07T02:19:08.438Z,4.43
2022-12-07T02:19:40.550Z,4.43
2022-12-07T02:20:12.681Z,4.42
2022-12-07T02:20:44.793Z,4.43
2022-12-07T02:21:16.950Z,4.42
2022-12-07T02:21:49.075Z,4.40
2022-12-07T02:22:21.209Z,4.42
2022-12-07T02:22:53.338Z,4.42
2022-12-07T02:23:25.459Z,4.40
2022-12-07T02:23:57.702Z,4.39
2022-12-07T02:24:29.945Z,4.37
2022-12-07T02:25:02.108Z,4.40
2022-12-07T02:25:34.221Z,4.39
2022-12-07T02:26:06.405Z,4.37
2022-12-07T02:26:38.535Z,4.37
2022-12-07T02:27:10.766Z,4.37
2022-12-07T02:27:42.954Z,4.36
2022-12-07T02:28:15.077Z,4.34
2022-12-07T02:28:47.230Z,4.33
2022-12-07T02:29:19.362Z,4.34
2022-12-07T02:29:51.463Z,4.33
2022-12-07T02:30:23.572Z,4.34
2022-12-07T02:30:55.735Z,4.34
2022-12-07T02:31:27.911Z,4.34
2022-12-07T02:32:00.032Z,4.33
2022-12-07T02:32:32.138Z,4.32
2022-12-07T02:33:04.265Z,4.32
2022-12-07T02:33:36.381Z,4.28
2022-12-07T02:34:08.616Z,4.29
2022-12-07T02:34:40.753Z,4.29
2022-12-07T02:35:12.881Z,4.29
2022-12-07T02:35:45.001Z,4.29
2022-12-07T02:36:17.168Z,4.28
2022-12-07T02:36:49.335Z,4.28
2022-12-07T02:37:21.496Z,4.26
2022-12-07T02:37:53.625Z,4.26
2022-12-07T02:38:25.774Z,4.28
2022-12-07T02:38:57.887Z,4.26
2022-12-07T02:39:30.059Z,4.26
2022-12-07T02:40:02.522Z,4.28
2022-12-07T02:40:34.307Z,4.25
2022-12-07T02:41:06.422Z,4.25
2022-12-07T02:41:38.554Z,4.25
2022-12-07T02:42:10.676Z,4.25
2022-12-07T02:42:43.028Z,4.25
2022-12-07T02:43:15.156Z,4.25
2022-12-07T02:43:47.327Z,4.25
2022-12-07T02:44:19.471Z,4.22
2022-12-07T02:44:51.578Z,4.22
2022-12-07T02:45:23.821Z,4.25
2022-12-07T02:45:56.005Z,4.21
2022-12-07T02:46:28.194Z,4.22
2022-12-07T02:47:00.222Z,4.22
2022-12-07T02:47:32.400Z,4.22
2022-12-07T02:48:04.525Z,4.18
2022-12-07T02:48:36.656Z,4.21
2022-12-07T02:49:08.835Z,4.19
2022-12-07T02:49:40.936Z,4.21
2022-12-07T02:50:13.086Z,4.16
2022-12-07T02:50:45.211Z,4.16
2022-12-07T02:51:17.445Z,4.16
2022-12-07T02:51:49.605Z,4.16
2022-12-07T02:52:21.785Z,4.16
2022-12-07T02:52:54.933Z,4.18
2022-12-07T02:53:27.092Z,4.16
2022-12-07T02:53:59.209Z,4.15
2022-12-07T02:54:31.351Z,4.15
2022-12-07T02:55:03.452Z,4.16
2022-12-07T02:55:35.646Z,4.15
2022-12-07T02:56:07.770Z,4.15
2022-12-07T02:56:39.937Z,4.15
2022-12-07T02:57:12.070Z,4.15
2022-12-07T02:57:44.187Z,4.15
2022-12-07T02:58:16.342Z,4.14
2022-12-07T02:58:48.490Z,4.10
2022-12-07T02:59:20.657Z,4.14
2022-12-07T02:59:52.818Z,4.08
2022-12-07T03:00:24.980Z,4.08
2022-12-07T03:00:57.099Z,4.10
2022-12-07T03:01:29.389Z,4.14
2022-12-07T03:02:01.525Z,4.10
2022-12-07T03:02:33.658Z,4.08
2022-12-07T03:03:05.798Z,4.10
2022-12-07T03:03:37.875Z,4.10
2022-12-07T03:04:10.014Z,4.10
2022-12-07T03:04:42.148Z,4.08
2022-12-07T03:05:14.299Z,4.08
2022-12-07T03:05:46.408Z,4.10
2022-12-07T03:06:18.550Z,4.06
2022-12-07T03:06:50.689Z,4.07
2022-12-07T03:07:22.828Z,4.06
2022-12-07T03:07:55.028Z,4.04
2022-12-07T03:08:27.173Z,4.04
2022-12-07T03:08:59.235Z,4.04
2022-12-07T03:09:31.369Z,4.03
2022-12-07T03:10:03.943Z,4.04
2022-12-07T03:10:35.697Z,4.04
2022-12-07T03:11:07.806Z,4.03
2022-12-07T03:11:39.944Z,4.01
2022-12-07T03:12:12.110Z,4.04
2022-12-07T03:12:44.237Z,4.03
2022-12-07T03:13:16.419Z,4.01
2022-12-07T03:13:48.540Z,4.01
2022-12-07T03:14:20.662Z,4.00
2022-12-07T03:14:53.756Z,4.01
2022-12-07T03:15:25.969Z,4.01
2022-12-07T03:15:58.072Z,4.00
2022-12-07T03:16:30.371Z,4.00
2022-12-07T03:17:02.646Z,3.98
2022-12-07T03:17:34.814Z,3.98
2022-12-07T03:18:06.958Z,3.97
2022-12-07T03:18:39.113Z,3.98
2022-12-07T03:19:11.243Z,3.96
2022-12-07T03:19:43.458Z,3.96
2022-12-07T03:20:15.612Z,3.96
2022-12-07T03:20:47.746Z,3.97
2022-12-07T03:21:19.956Z,3.97
2022-12-07T03:21:52.122Z,3.97
2022-12-07T03:22:24.244Z,3.96
2022-12-07T03:22:56.373Z,3.98
2022-12-07T03:23:28.497Z,3.97
2022-12-07T03:24:00.657Z,3.98
2022-12-07T03:24:32.808Z,3.97
2022-12-07T03:25:04.940Z,3.98
2022-12-07T03:25:37.097Z,3.96
2022-12-07T03:26:09.217Z,3.97
2022-12-07T03:26:41.322Z,3.96
2022-12-07T03:27:13.452Z,3.96
2022-12-07T03:27:45.600Z,3.96
2022-12-07T03:28:17.705Z,3.94
2022-12-07T03:28:49.844Z,3.94
2022-12-07T03:29:21.985Z,3.94
2022-12-07T03:29:54.107Z,3.92
2022-12-07T03:30:26.238Z,3.92
2022-12-07T03:30:58.437Z,3.90
2022-12-07T03:31:30.639Z,3.90
2022-12-07T03:32:02.714Z,3.90
2022-12-07T03:32:34.861Z,3.90
2022-12-07T03:33:06.995Z,3.92
2022-12-07T03:33:39.139Z,3.92
2022-12-07T03:34:11.285Z,3.90
2022-12-07T03:34:43.462Z,3.92
2022-12-07T03:35:15.594Z,3.90
2022-12-07T03:35:47.711Z,3.92
2022-12-07T03:36:19.824Z,3.92
2022-12-07T03:36:51.943Z,3.90
2022-12-07T03:37:24.082Z,3.90
2022-12-07T03:37:56.200Z,3.94
2022-12-07T03:38:28.353Z,3.90
2022-12-07T03:39:00.466Z,3.90
2022-12-07T03:39:32.608Z,3.89
2022-12-07T03:40:04.976Z,3.89
2022-12-07T03:40:36.859Z,3.88
2022-12-07T03:41:09.825Z,3.88
2022-12-07T03:41:45.203Z,3.89
2022-12-07T03:42:14.111Z,3.89
2022-12-07T03:42:46.344Z,3.89
2022-12-07T03:43:18.480Z,3.90
2022-12-07T03:43:50.605Z,3.88
2022-12-07T03:44:22.712Z,3.89
2022-12-07T03:44:54.812Z,3.88
2022-12-07T03:45:26.958Z,3.88
2022-12-07T03:45:59.089Z,3.86
2022-12-07T03:46:31.326Z,3.88
2022-12-07T03:47:03.476Z,3.86
2022-12-07T03:47:35.564Z,3.86
2022-12-07T03:48:07.691Z,3.83
2022-12-07T03:48:39.889Z,3.85
2022-12-07T03:49:12.018Z,3.85
2022-12-07T03:49:44.142Z,3.83
2022-12-07T03:50:16.262Z,3.82
2022-12-07T03:50:48.382Z,3.82
2022-12-07T03:51:20.488Z,3.80
2022-12-07T03:51:52.760Z,3.82
2022-12-07T03:52:24.919Z,3.82
2022-12-07T03:52:57.095Z,3.82
2022-12-07T03:53:29.241Z,3.83
2022-12-07T03:54:01.411Z,3.82
2022-12-07T03:54:33.589Z,3.85
2022-12-07T03:55:05.704Z,3.86
2022-12-07T03:55:37.864Z,3.88
2022-12-07T03:56:09.964Z,3.86
2022-12-07T03:56:42.195Z,3.86
2022-12-07T03:57:14.305Z,3.86
2022-12-07T03:57:46.445Z,3.89
2022-12-07T03:58:18.562Z,3.90
2022-12-07T03:58:50.699Z,3.89
2022-12-07T03:59:22.846Z,3.92
2022-12-07T03:59:54.993Z,3.92
2022-12-07T04:00:27.114Z,3.92
2022-12-07T04:00:59.319Z,3.92
2022-12-07T04:01:31.541Z,3.94
2022-12-07T04:02:03.694Z,3.92
2022-12-07T04:02:35.767Z,3.92
2022-12-07T04:03:07.942Z,3.94
2022-12-07T04:03:39.968Z,3.94
2022-12-07T04:04:12.075Z,3.94
2022-12-07T04:04:44.208Z,3.96
2022-12-07T04:05:16.321Z,3.96
2022-12-07T04:05:48.449Z,3.96
2022-12-07T04:06:20.678Z,3.96
2022-12-07T04:06:52.833Z,3.97
2022-12-07T04:07:24.968Z,3.96
2022-12-07T04:07:57.128Z,3.96
2022-12-07T04:08:29.275Z,3.98
2022-12-07T04:09:01.390Z,3.98
2022-12-07T04:09:33.519Z,4.00
2022-12-07T04:10:05.964Z,4.00
2022-12-07T04:10:37.783Z,4.00
2022-12-07T04:11:09.964Z,4.01
2022-12-07T04:11:42.235Z,4.03
2022-12-07T04:12:14.382Z,4.04
2022-12-07T04:12:46.557Z,4.06
2022-12-07T04:13:18.687Z,4.06
2022-12-07T04:13:50.883Z,4.06
2022-12-07T04:14:22.999Z,4.07
2022-12-07T04:14:55.144Z,4.07
2022-12-07T04:15:27.249Z,4.07
2022-12-07T04:15:59.438Z,4.08
2022-12-07T04:16:31.610Z,4.10
2022-12-07T04:17:03.685Z,4.07
2022-12-07T04:17:35.822Z,4.10
2022-12-07T04:18:07.941Z,4.08
2022-12-07T04:18:40.095Z,4.08
2022-12-07T04:19:12.229Z,4.07
2022-12-07T04:19:44.396Z,4.08
2022-12-07T04:20:16.548Z,4.06
2022-12-07T04:20:48.678Z,4.07
2022-12-07T04:21:20.791Z,4.06
2022-12-07T04:21:52.933Z,4.08
2022-12-07T04:22:25.103Z,4.10
2022-12-07T04:22:57.260Z,4.08
2022-12-07T04:23:29.420Z,4.12
2022-12-07T04:24:01.548Z,4.12
2022-12-07T04:24:33.660Z,4.08
2022-12-07T04:25:05.782Z,4.10
2022-12-07T04:25:37.941Z,4.10
2022-12-07T04:26:10.374Z,4.08
2022-12-07T04:26:42.502Z,4.06
2022-12-07T04:27:14.623Z,4.07
2022-12-07T04:27:46.756Z,4.06
2022-12-07T04:28:18.862Z,4.04
2022-12-07T04:28:50.975Z,4.04
2022-12-07T04:29:23.111Z,4.06
2022-12-07T04:29:55.246Z,4.03
2022-12-07T04:30:27.376Z,4.06
2022-12-07T04:30:59.597Z,4.03
2022-12-07T04:31:31.777Z,4.01
2022-12-07T04:32:03.818Z,4.00
2022-12-07T04:32:36.021Z,4.00
2022-12-07T04:33:08.296Z,4.01
2022-12-07T04:33:40.444Z,3.98
2022-12-07T04:34:12.555Z,4.00
2022-12-07T04:34:44.703Z,4.00
2022-12-07T04:35:16.852Z,3.98
2022-12-07T04:35:48.968Z,3.97
2022-12-07T04:36:21.105Z,3.97
2022-12-07T04:36:53.233Z,3.97
2022-12-07T04:37:25.340Z,3.97
2022-12-07T04:37:57.452Z,3.96
2022-12-07T04:38:29.681Z,3.97
2022-12-07T04:39:01.881Z,3.97
2022-12-07T04:39:34.014Z,3.96
2022-12-07T04:40:06.174Z,3.97
2022-12-07T04:40:38.273Z,3.97
2022-12-07T04:41:10.385Z,4.00
2022-12-07T04:41:42.503Z,3.98
2022-12-07T04:42:14.617Z,3.98
2022-12-07T04:42:46.758Z,3.98
2022-12-07T04:43:18.878Z,3.97
2022-12-07T04:43:51.053Z,3.97
2022-12-07T04:44:23.166Z,3.98
2022-12-07T04:44:55.283Z,3.97
2022-12-07T04:45:27.396Z,3.98
2022-12-07T04:45:59.518Z,3.98
2022-12-07T04:46:31.707Z,3.97
2022-12-07T04:47:03.850Z,3.96
2022-12-07T04:47:35.906Z,3.98
2022-12-07T04:48:08.138Z,3.96
2022-12-07T04:48:40.248Z,3.97
2022-12-07T04:49:12.443Z,3.98
2022-12-07T04:49:44.560Z,3.97
2022-12-07T04:50:16.673Z,3.98
2022-12-07T04:50:48.802Z,3.98
2022-12-07T04:51:20.907Z,3.96
2022-12-07T04:51:53.075Z,3.98
2022-12-07T04:52:25.185Z,3.97
2022-12-07T04:52:57.299Z,3.96
2022-12-07T04:53:29.490Z,3.96
2022-12-07T04:54:01.764Z,3.96
2022-12-07T04:54:33.995Z,3.92
2022-12-07T04:55:06.114Z,3.94
2022-12-07T04:55:38.233Z,3.94
2022-12-07T04:56:10.359Z,3.94
2022-12-07T04:56:42.481Z,3.92
2022-12-07T04:57:14.682Z,3.92
2022-12-07T04:57:46.828Z,3.92
2022-12-07T04:58:18.950Z,3.90
2022-12-07T04:58:51.098Z,3.90
2022-12-07T04:59:23.258Z,3.94
2022-12-07T04:59:55.436Z,3.92
2022-12-07T05:00:27.603Z,3.90
2022-12-07T05:00:59.755Z,3.89
2022-12-07T05:01:31.867Z,3.89
2022-12-07T05:02:04.104Z,3.89
2022-12-07T05:02:37.194Z,3.88
2022-12-07T05:03:09.285Z,3.86
2022-12-07T05:03:41.412Z,3.88
2022-12-07T05:04:13.537Z,3.86
2022-12-07T05:04:45.710Z,3.88
2022-12-07T05:05:17.829Z,3.86
2022-12-07T05:05:49.959Z,3.85
2022-12-07T05:06:22.140Z,3.85
2022-12-07T05:06:54.255Z,3.85
2022-12-07T05:07:27.135Z,3.86
2022-12-07T05:07:59.306Z,3.85
2022-12-07T05:08:31.423Z,3.85
2022-12-07T05:09:03.571Z,3.85
2022-12-07T05:09:35.734Z,3.83
2022-12-07T05:10:07.877Z,3.85
2022-12-07T05:10:39.992Z,3.85
2022-12-07T05:11:12.207Z,3.86
2022-12-07T05:11:44.413Z,3.85
2022-12-07T05:12:16.657Z,3.86
2022-12-07T05:12:48.814Z,3.86
2022-12-07T05:13:20.930Z,3.88
2022-12-07T05:13:53.087Z,3.86
2022-12-07T05:14:25.209Z,3.89
2022-12-07T05:15:04.397Z,3.88
2022-12-07T05:15:36.590Z,3.86
2022-12-07T05:16:08.799Z,3.88
2022-12-07T05:16:40.957Z,3.86
2022-12-07T05:17:12.979Z,3.88
2022-12-07T05:17:45.125Z,3.89
2022-12-07T05:18:17.260Z,3.88
2022-12-07T05:18:49.396Z,3.88
2022-12-07T05:19:21.652Z,3.86
2022-12-07T05:19:53.799Z,3.88
2022-12-07T05:20:25.920Z,3.85
2022-12-07T05:20:58.086Z,3.86
2022-12-07T05:21:30.199Z,3.85
2022-12-07T05:22:02.334Z,3.86
2022-12-07T05:22:34.467Z,3.85
2022-12-07T05:23:06.589Z,3.86
2022-12-07T05:23:38.721Z,3.88
2022-12-07T05:24:10.872Z,3.85
2022-12-07T05:24:42.985Z,3.86
2022-12-07T05:25:15.135Z,3.85
2022-12-07T05:25:47.293Z,3.85
2022-12-07T05:26:19.412Z,3.86
2022-12-07T05:26:51.538Z,3.86
2022-12-07T05:27:23.756Z,3.86
2022-12-07T05:27:55.878Z,3.86
2022-12-07T05:28:28.008Z,3.86
2022-12-07T05:29:00.116Z,3.83
2022-12-07T05:29:32.233Z,3.85
2022-12-07T05:30:04.560Z,3.85
2022-12-07T05:30:36.517Z,3.85
2022-12-07T05:31:08.847Z,3.86
2022-12-07T05:31:40.995Z,3.86
2022-12-07T05:32:13.019Z,3.86
2022-12-07T05:32:45.157Z,3.85
2022-12-07T05:33:17.294Z,3.83
2022-12-07T05:33:49.477Z,3.83
2022-12-07T05:34:21.695Z,3.85
2022-12-07T05:34:53.847Z,3.83
2022-12-07T05:35:25.969Z,3.83
2022-12-07T05:35:58.091Z,3.85
2022-12-07T05:36:30.214Z,3.85
2022-12-07T05:37:02.397Z,3.83
2022-12-07T05:37:34.534Z,3.85
2022-12-07T05:38:06.671Z,3.86
2022-12-07T05:38:38.825Z,3.85
2022-12-07T05:39:10.942Z,3.86
2022-12-07T05:39:43.071Z,3.86
2022-12-07T05:40:15.188Z,3.88
2022-12-07T05:40:47.315Z,3.89
2022-12-07T05:41:19.434Z,3.89
2022-12-07T05:41:51.593Z,3.89
2022-12-07T05:42:23.738Z,3.88
2022-12-07T05:42:58.784Z,3.89
2022-12-07T05:43:28.084Z,3.88
2022-12-07T05:44:00.198Z,3.86
2022-12-07T05:44:32.365Z,3.85
2022-12-07T05:45:04.484Z,3.88
2022-12-07T05:45:36.681Z,3.85
2022-12-07T05:46:08.852Z,3.85
2022-12-07T05:46:40.952Z,3.86
2022-12-07T05:47:13.080Z,3.86
2022-12-07T05:47:45.355Z,3.83
2022-12-07T05:48:17.477Z,3.85
2022-12-07T05:48:49.629Z,3.83
2022-12-07T05:49:21.767Z,3.85
2022-12-07T05:49:53.923Z,3.85
2022-12-07T05:50:26.033Z,3.83
2022-12-07T05:50:58.270Z,3.83
2022-12-07T05:51:30.386Z,3.82
2022-12-07T05:52:02.494Z,3.83
2022-12-07T05:52:34.643Z,3.82
2022-12-07T05:53:06.772Z,3.80
2022-12-07T05:53:38.927Z,3.80
2022-12-07T05:54:11.083Z,3.80
2022-12-07T05:54:43.264Z,3.80
2022-12-07T05:55:15.393Z,3.80
2022-12-07T05:55:47.527Z,3.78
2022-12-07T05:56:19.649Z,3.80
2022-12-07T05:56:51.887Z,3.80
2022-12-07T05:57:24.045Z,3.79
2022-12-07T05:57:56.211Z,3.79
2022-12-07T05:58:28.389Z,3.78
2022-12-07T05:59:00.517Z,3.78
2022-12-07T05:59:32.692Z,3.79
2022-12-07T06:00:05.190Z,3.76
2022-12-07T06:00:36.993Z,3.78
2022-12-07T06:01:09.201Z,3.78
2022-12-07T06:01:41.433Z,3.76
2022-12-07T06:02:13.563Z,3.76
2022-12-07T06:02:45.739Z,3.79
2022-12-07T06:03:17.864Z,3.78
2022-12-07T06:03:49.863Z,3.79
2022-12-07T06:04:22.051Z,3.79
2022-12-07T06:04:54.231Z,3.78
2022-12-07T06:05:26.337Z,3.78
2022-12-07T06:05:58.515Z,3.79
2022-12-07T06:06:30.659Z,3.82
2022-12-07T06:07:02.739Z,3.83
2022-12-07T06:07:34.954Z,3.85
2022-12-07T06:08:07.015Z,3.85
2022-12-07T06:08:39.114Z,3.86
2022-12-07T06:09:11.253Z,3.86
2022-12-07T06:09:43.397Z,3.86
2022-12-07T06:10:15.585Z,3.88
2022-12-07T06:10:47.738Z,3.88
2022-12-07T06:11:19.918Z,3.88
2022-12-07T06:11:52.044Z,3.86
2022-12-07T06:12:24.164Z,3.86
2022-12-07T06:12:56.290Z,3.88
2022-12-07T06:13:28.405Z,3.90
2022-12-07T06:14:00.640Z,3.88
2022-12-07T06:14:32.762Z,3.88
2022-12-07T06:15:04.932Z,3.88
2022-12-07T06:15:37.021Z,3.89
2022-12-07T06:16:09.179Z,3.86
2022-12-07T06:16:41.325Z,3.88
2022-12-07T06:17:13.380Z,3.88
2022-12-07T06:17:45.491Z,3.86
2022-12-07T06:18:17.634Z,3.85
2022-12-07T06:18:49.747Z,3.86
2022-12-07T06:19:21.883Z,3.86
2022-12-07T06:19:53.985Z,3.86
2022-12-07T06:20:26.110Z,3.86
2022-12-07T06:20:58.269Z,3.88
2022-12-07T06:21:30.395Z,3.86
2022-12-07T06:22:02.508Z,3.86
2022-12-07T06:22:34.668Z,3.86
2022-12-07T06:23:06.802Z,3.86
2022-12-07T06:23:38.937Z,3.86
2022-12-07T06:24:11.113Z,3.86
2022-12-07T06:24:43.227Z,3.86
2022-12-07T06:25:15.375Z,3.86
2022-12-07T06:25:47.616Z,3.88
2022-12-07T06:26:19.767Z,3.89
2022-12-07T06:26:51.910Z,3.89
2022-12-07T06:27:24.011Z,3.88
2022-12-07T06:27:56.149Z,3.90
2022-12-07T06:28:28.265Z,3.90
2022-12-07T06:29:00.407Z,3.89
2022-12-07T06:29:32.581Z,3.92
2022-12-07T06:30:04.849Z,3.92
2022-12-07T06:30:36.829Z,3.90
2022-12-07T06:31:13.636Z,3.90
2022-12-07T06:31:41.190Z,3.92
2022-12-07T06:32:13.352Z,3.94
2022-12-07T06:32:45.379Z,3.94
2022-12-07T06:33:17.512Z,3.94
2022-12-07T06:33:49.637Z,3.92
2022-12-07T06:34:21.769Z,3.92
2022-12-07T06:34:53.877Z,3.94
2022-12-07T06:35:26.007Z,3.90
2022-12-07T06:35:58.176Z,3.92
2022-12-07T06:36:30.285Z,3.92
2022-12-07T06:37:02.396Z,3.92
2022-12-07T06:37:34.538Z,3.90
2022-12-07T06:38:06.672Z,3.92
2022-12-07T06:38:38.783Z,3.90
2022-12-07T06:39:10.982Z,3.90
2022-12-07T06:39:43.115Z,3.88
2022-12-07T06:40:15.262Z,3.89
2022-12-07T06:40:47.383Z,3.88
2022-12-07T06:41:19.499Z,3.88
2022-12-07T06:41:51.617Z,3.86
2022-12-07T06:42:23.754Z,3.86
2022-12-07T06:42:55.889Z,3.85
2022-12-07T06:43:28.000Z,3.83
2022-12-07T06:44:00.128Z,3.83
2022-12-07T06:44:32.237Z,3.82
2022-12-07T06:45:04.368Z,3.80
2022-12-07T06:45:36.541Z,3.82
2022-12-07T06:46:08.704Z,3.78
2022-12-07T06:46:40.767Z,3.79
2022-12-07T06:47:39.661Z,3.82
2022-12-07T06:47:46.171Z,3.78
2022-12-07T06:48:17.163Z,3.78
2022-12-07T06:48:49.347Z,3.78
2022-12-07T06:49:21.476Z,3.76
2022-12-07T06:49:53.607Z,3.75
2022-12-07T06:50:25.734Z,3.72
2022-12-07T06:50:57.875Z,3.72
2022-12-07T06:51:29.992Z,3.71
2022-12-07T06:52:02.141Z,3.72
2022-12-07T06:52:34.257Z,3.68
2022-12-07T06:53:06.382Z,3.71
2022-12-07T06:53:38.503Z,3.70
2022-12-07T06:54:10.627Z,3.70
2022-12-07T06:54:42.763Z,3.70
2022-12-07T06:55:14.866Z,3.70
2022-12-07T06:55:46.986Z,3.70
2022-12-07T06:56:19.107Z,3.68
2022-12-07T06:56:51.231Z,3.68
2022-12-07T06:57:23.382Z,3.70
2022-12-07T06:57:55.511Z,3.68
2022-12-07T06:58:27.751Z,3.65
2022-12-07T06:58:59.884Z,3.65
2022-12-07T06:59:32.011Z,3.68
2022-12-07T07:00:04.585Z,3.67
2022-12-07T07:00:36.343Z,3.67
2022-12-07T07:01:08.529Z,3.64
2022-12-07T07:01:40.748Z,3.64
2022-12-07T07:02:12.870Z,3.62
2022-12-07T07:02:45.009Z,3.65
2022-12-07T07:03:17.111Z,3.64
2022-12-07T07:03:49.259Z,3.64
2022-12-07T07:04:21.469Z,3.64
2022-12-07T07:04:53.585Z,3.62
2022-12-07T07:05:25.813Z,3.62
2022-12-07T07:05:57.957Z,3.64
2022-12-07T07:06:30.113Z,3.62
2022-12-07T07:07:02.274Z,3.61
2022-12-07T07:07:51.862Z,3.62
2022-12-07T07:08:22.852Z,3.64
2022-12-07T07:08:38.804Z,3.64